sensor_id;sensor_type;location;lat;lon;timestamp;pressure;altitude;pressure_sealevel;temperature;humidity
29549;BME280;16487;53.094;8.800;2023-10-09T00:01:17;100380.19;;;13.68;100.00
29549;BME280;16487;53.094;8.800;2023-10-09T00:03:44;100398.91;;;13.62;100.00
29549;BME280;16487;53.094;8.800;2023-10-09T00:06:11;100424.09;;;13.62;100.00
29549;BME280;16487;53.094;8.800;2023-10-09T00:08:39;100434.03;;;13.63;100.00
29549;BME280;16487;53.094;8.800;2023-10-09T00:11:06;100436.53;;;13.61;100.00
29549;BME280;16487;53.094;8.800;2023-10-09T00:13:35;100425.97;;;13.56;100.00
29549;BME280;16487;53.094;8.800;2023-10-09T00:16:04;100428.94;;;13.53;100.00
29549;BME280;16487;53.094;8.800;2023-10-09T00:18:31;100430.66;;;13.50;100.00
29549;BME280;16487;53.094;8.800;2023-10-09T00:20:59;100433.31;;;13.45;100.00
29549;BME280;16487;53.094;8.800;2023-10-09T00:23:27;100435.81;;;13.43;100.00
29549;BME280;16487;53.094;8.800;2023-10-09T00:25:54;100451.22;;;13.38;100.00
29549;BME280;16487;53.094;8.800;2023-10-09T00:28:21;100463.50;;;13.32;100.00
29549;BME280;16487;53.094;8.800;2023-10-09T00:30:49;100463.66;;;13.28;100.00
29549;BME280;16487;53.094;8.800;2023-10-09T00:33:16;100471.91;;;13.41;100.00
29549;BME280;16487;53.094;8.800;2023-10-09T00:35:44;100474.25;;;13.24;100.00
29549;BME280;16487;53.094;8.800;2023-10-09T00:38:11;100472.38;;;13.30;100.00
29549;BME280;16487;53.094;8.800;2023-10-09T00:40:38;100482.50;;;13.28;100.00
29549;BME280;16487;53.094;8.800;2023-10-09T00:43:05;100495.88;;;13.24;100.00
29549;BME280;16487;53.094;8.800;2023-10-09T00:45:32;100501.16;;;13.22;100.00
29549;BME280;16487;53.094;8.800;2023-10-09T00:48:01;100500.06;;;13.19;100.00
29549;BME280;16487;53.094;8.800;2023-10-09T00:50:29;100494.91;;;13.18;100.00
29549;BME280;16487;53.094;8.800;2023-10-09T00:52:57;100508.75;;;13.21;100.00
29549;BME280;16487;53.094;8.800;2023-10-09T00:55:25;100514.81;;;13.20;100.00
29549;BME280;16487;53.094;8.800;2023-10-09T00:57:54;100519.94;;;13.21;100.00
29549;BME280;16487;53.094;8.800;2023-10-09T01:00:23;100514.66;;;13.14;100.00
29549;BME280;16487;53.094;8.800;2023-10-09T01:02:50;100529.59;;;13.11;100.00
29549;BME280;16487;53.094;8.800;2023-10-09T01:05:19;100533.97;;;13.12;100.00
29549;BME280;16487;53.094;8.800;2023-10-09T01:07:47;100549.19;;;13.11;100.00
29549;BME280;16487;53.094;8.800;2023-10-09T01:10:15;100549.34;;;13.17;100.00
29549;BME280;16487;53.094;8.800;2023-10-09T01:12:42;100535.97;;;13.03;100.00
29549;BME280;16487;53.094;8.800;2023-10-09T01:15:10;100536.44;;;13.10;100.00
29549;BME280;16487;53.094;8.800;2023-10-09T01:17:37;100524.63;;;13.06;100.00
29549;BME280;16487;53.094;8.800;2023-10-09T01:20:05;100521.97;;;13.03;100.00
29549;BME280;16487;53.094;8.800;2023-10-09T01:22:34;100500.97;;;12.98;100.00
29549;BME280;16487;53.094;8.800;2023-10-09T01:25:04;100488.53;;;12.99;100.00
29549;BME280;16487;53.094;8.800;2023-10-09T01:27:31;100456.22;;;12.98;100.00
29549;BME280;16487;53.094;8.800;2023-10-09T01:29:59;100451.09;;;12.97;100.00
29549;BME280;16487;53.094;8.800;2023-10-09T01:32:26;100452.16;;;12.99;100.00
29549;BME280;16487;53.094;8.800;2023-10-09T01:34:54;100463.97;;;12.94;100.00
29549;BME280;16487;53.094;8.800;2023-10-09T01:37:21;100461.19;;;12.94;100.00
29549;BME280;16487;53.094;8.800;2023-10-09T01:39:49;100459.31;;;12.91;100.00
29549;BME280;16487;53.094;8.800;2023-10-09T01:42:19;100470.19;;;12.89;100.00
29549;BME280;16487;53.094;8.800;2023-10-09T01:44:46;100486.19;;;12.98;100.00
29549;BME280;16487;53.094;8.800;2023-10-09T01:47:13;100469.56;;;12.94;100.00
29549;BME280;16487;53.094;8.800;2023-10-09T01:49:40;100472.53;;;12.91;100.00
29549;BME280;16487;53.094;8.800;2023-10-09T01:52:08;100464.91;;;12.91;100.00
29549;BME280;16487;53.094;8.800;2023-10-09T01:54:36;100454.50;;;12.92;100.00
29549;BME280;16487;53.094;8.800;2023-10-09T01:57:04;100453.09;;;12.96;100.00
29549;BME280;16487;53.094;8.800;2023-10-09T01:59:33;100458.06;;;12.92;100.00
29549;BME280;16487;53.094;8.800;2023-10-09T02:02:00;100447.19;;;12.94;100.00
29549;BME280;16487;53.094;8.800;2023-10-09T02:04:27;100452.47;;;12.92;100.00
29549;BME280;16487;53.094;8.800;2023-10-09T02:06:55;100452.31;;;12.96;100.00
29549;BME280;16487;53.094;8.800;2023-10-09T02:09:22;100446.88;;;12.92;100.00
29549;BME280;16487;53.094;8.800;2023-10-09T02:11:50;100425.91;;;12.88;100.00
29549;BME280;16487;53.094;8.800;2023-10-09T02:14:17;100412.41;;;12.86;100.00
29549;BME280;16487;53.094;8.800;2023-10-09T02:16:46;100412.41;;;12.86;100.00
29549;BME280;16487;53.094;8.800;2023-10-09T02:19:13;100405.53;;;12.87;100.00
29549;BME280;16487;53.094;8.800;2023-10-09T02:21:41;100397.78;;;12.82;100.00
29549;BME280;16487;53.094;8.800;2023-10-09T02:24:08;100402.44;;;12.85;100.00
29549;BME280;16487;53.094;8.800;2023-10-09T02:26:35;100396.09;;;12.85;100.00
29549;BME280;16487;53.094;8.800;2023-10-09T02:29:02;100395.00;;;12.91;100.00
29549;BME280;16487;53.094;8.800;2023-10-09T02:31:30;100377.88;;;12.89;100.00
29549;BME280;16487;53.094;8.800;2023-10-09T02:33:58;100376.78;;;12.87;100.00
29549;BME280;16487;53.094;8.800;2023-10-09T02:36:26;100372.78;;;12.79;100.00
29549;BME280;16487;53.094;8.800;2023-10-09T02:38:53;100365.00;;;12.83;100.00
29549;BME280;16487;53.094;8.800;2023-10-09T02:41:20;100358.31;;;12.80;100.00
29549;BME280;16487;53.094;8.800;2023-10-09T02:43:47;100361.75;;;12.84;100.00
29549;BME280;16487;53.094;8.800;2023-10-09T02:46:14;100362.38;;;12.79;100.00
29549;BME280;16487;53.094;8.800;2023-10-09T02:48:42;100363.91;;;12.89;100.00
29549;BME280;16487;53.094;8.800;2023-10-09T02:51:10;100374.47;;;12.85;100.00
29549;BME280;16487;53.094;8.800;2023-10-09T02:53:37;100367.34;;;12.84;100.00
29549;BME280;16487;53.094;8.800;2023-10-09T02:56:04;100381.78;;;12.92;100.00
29549;BME280;16487;53.094;8.800;2023-10-09T02:58:32;100386.75;;;12.88;100.00
29549;BME280;16487;53.094;8.800;2023-10-09T03:00:59;100385.03;;;12.90;100.00
29549;BME280;16487;53.094;8.800;2023-10-09T03:03:26;100404.28;;;12.97;100.00
29549;BME280;16487;53.094;8.800;2023-10-09T03:05:54;100396.06;;;13.03;100.00
29549;BME280;16487;53.094;8.800;2023-10-09T03:08:22;100400.44;;;13.04;100.00
29549;BME280;16487;53.094;8.800;2023-10-09T03:10:49;100405.56;;;13.05;100.00
29549;BME280;16487;53.094;8.800;2023-10-09T03:13:16;100408.06;;;13.03;100.00
29549;BME280;16487;53.094;8.800;2023-10-09T03:15:43;100385.03;;;12.99;100.00
29549;BME280;16487;53.094;8.800;2023-10-09T03:18:10;100391.91;;;13.07;100.00
29549;BME280;16487;53.094;8.800;2023-10-09T03:20:38;100376.50;;;13.12;100.00
29549;BME280;16487;53.094;8.800;2023-10-09T03:23:06;100378.19;;;13.18;100.00
29549;BME280;16487;53.094;8.800;2023-10-09T03:25:36;100353.94;;;13.15;100.00
29549;BME280;16487;53.094;8.800;2023-10-09T03:28:04;100355.16;;;13.23;100.00
29549;BME280;16487;53.094;8.800;2023-10-09T03:30:31;100355.78;;;13.18;100.00
29549;BME280;16487;53.094;8.800;2023-10-09T03:32:59;100348.50;;;13.21;100.00
29549;BME280;16487;53.094;8.800;2023-10-09T03:35:26;100353.44;;;13.26;100.00
29549;BME280;16487;53.094;8.800;2023-10-09T03:37:55;100364.81;;;13.22;100.00
29549;BME280;16487;53.094;8.800;2023-10-09T03:40:23;100366.34;;;13.23;100.00
29549;BME280;16487;53.094;8.800;2023-10-09T03:42:52;100364.97;;;13.19;100.00
29549;BME280;16487;53.094;8.800;2023-10-09T03:45:19;100375.66;;;13.29;100.00
29549;BME280;16487;53.094;8.800;2023-10-09T03:47:47;100369.47;;;13.25;100.00
29549;BME280;16487;53.094;8.800;2023-10-09T03:50:14;100375.56;;;13.06;100.00
29549;BME280;16487;53.094;8.800;2023-10-09T03:52:41;100364.97;;;13.10;100.00
29549;BME280;16487;53.094;8.800;2023-10-09T03:55:08;100366.09;;;13.12;100.00
29549;BME280;16487;53.094;8.800;2023-10-09T03:57:35;100366.66;;;13.16;100.00
29549;BME280;16487;53.094;8.800;2023-10-09T04:00:05;100349.22;;;13.30;100.00
29549;BME280;16487;53.094;8.800;2023-10-09T04:02:37;100355.91;;;13.33;100.00
29549;BME280;16487;53.094;8.800;2023-10-09T04:05:05;100363.69;;;13.29;100.00
29549;BME280;16487;53.094;8.800;2023-10-09T04:07:32;100354.81;;;13.30;100.00
29549;BME280;16487;53.094;8.800;2023-10-09T04:09:59;100360.09;;;13.37;100.00
29549;BME280;16487;53.094;8.800;2023-10-09T04:12:26;100334.81;;;13.23;100.00
29549;BME280;16487;53.094;8.800;2023-10-09T04:14:54;100336.19;;;13.27;100.00
29549;BME280;16487;53.094;8.800;2023-10-09T04:17:23;100340.81;;;13.30;100.00
29549;BME280;16487;53.094;8.800;2023-10-09T04:19:50;100339.31;;;13.20;100.00
29549;BME280;16487;53.094;8.800;2023-10-09T04:22:17;100332.00;;;13.23;100.00
29549;BME280;16487;53.094;8.800;2023-10-09T04:24:44;100339.63;;;13.22;100.00
29549;BME280;16487;53.094;8.800;2023-10-09T04:27:12;100337.88;;;13.25;100.00
29549;BME280;16487;53.094;8.800;2023-10-09T04:29:39;100342.28;;;13.17;100.00
29549;BME280;16487;53.094;8.800;2023-10-09T04:32:06;100344.56;;;13.27;100.00
29549;BME280;16487;53.094;8.800;2023-10-09T04:34:35;100352.50;;;13.29;100.00
29549;BME280;16487;53.094;8.800;2023-10-09T04:37:02;100372.72;;;13.24;100.00
29549;BME280;16487;53.094;8.800;2023-10-09T04:39:29;100330.41;;;13.31;100.00
29549;BME280;16487;53.094;8.800;2023-10-09T04:41:57;100324.38;;;13.23;100.00
29549;BME280;16487;53.094;8.800;2023-10-09T04:44:25;100321.56;;;13.23;100.00
29549;BME280;16487;53.094;8.800;2023-10-09T04:46:52;100325.94;;;13.24;100.00
29549;BME280;16487;53.094;8.800;2023-10-09T04:49:20;100321.47;;;13.09;100.00
29549;BME280;16487;53.094;8.800;2023-10-09T04:51:48;100322.72;;;13.08;100.00
29549;BME280;16487;53.094;8.800;2023-10-09T04:54:15;100322.56;;;13.44;100.00
29549;BME280;16487;53.094;8.800;2023-10-09T04:56:42;100310.38;;;13.23;100.00
29549;BME280;16487;53.094;8.800;2023-10-09T04:59:10;100298.59;;;13.19;100.00
29549;BME280;16487;53.094;8.800;2023-10-09T05:01:37;100321.91;;;13.16;100.00
29549;BME280;16487;53.094;8.800;2023-10-09T05:04:04;100344.59;;;13.18;100.00
29549;BME280;16487;53.094;8.800;2023-10-09T05:06:31;100345.22;;;13.13;100.00
29549;BME280;16487;53.094;8.800;2023-10-09T05:09:00;100351.28;;;13.21;100.00
29549;BME280;16487;53.094;8.800;2023-10-09T05:11:28;100332.94;;;13.20;100.00
29549;BME280;16487;53.094;8.800;2023-10-09T05:13:55;100348.97;;;13.19;100.00
29549;BME280;16487;53.094;8.800;2023-10-09T05:16:22;100341.16;;;13.23;100.00
29549;BME280;16487;53.094;8.800;2023-10-09T05:18:49;100338.34;;;13.23;100.00
29549;BME280;16487;53.094;8.800;2023-10-09T05:21:16;100346.44;;;13.21;100.00
29549;BME280;16487;53.094;8.800;2023-10-09T05:23:44;100355.63;;;13.22;100.00
29549;BME280;16487;53.094;8.800;2023-10-09T05:26:13;100368.97;;;13.27;100.00
29549;BME280;16487;53.094;8.800;2023-10-09T05:28:41;100351.38;;;13.35;100.00
29549;BME280;16487;53.094;8.800;2023-10-09T05:31:08;100343.59;;;13.39;100.00
29549;BME280;16487;53.094;8.800;2023-10-09T05:33:36;100351.34;;;13.44;100.00
29549;BME280;16487;53.094;8.800;2023-10-09T05:36:03;100329.72;;;13.54;100.00
29549;BME280;16487;53.094;8.800;2023-10-09T05:38:31;100318.34;;;13.57;100.00
29549;BME280;16487;53.094;8.800;2023-10-09T05:40:58;100297.34;;;13.53;100.00
29549;BME280;16487;53.094;8.800;2023-10-09T05:43:27;100300.59;;;13.60;100.00
29549;BME280;16487;53.094;8.800;2023-10-09T05:45:57;100291.09;;;13.58;100.00
29549;BME280;16487;53.094;8.800;2023-10-09T05:48:25;100303.06;;;13.58;100.00
29549;BME280;16487;53.094;8.800;2023-10-09T05:50:52;100312.91;;;13.54;100.00
29549;BME280;16487;53.094;8.800;2023-10-09T05:53:19;100329.53;;;13.57;100.00
29549;BME280;16487;53.094;8.800;2023-10-09T05:55:46;100340.09;;;13.62;100.00
29549;BME280;16487;53.094;8.800;2023-10-09T05:58:13;100345.81;;;13.68;100.00
29549;BME280;16487;53.094;8.800;2023-10-09T06:00:42;100338.47;;;13.70;100.00
29549;BME280;16487;53.094;8.800;2023-10-09T06:03:09;100334.59;;;13.68;100.00
29549;BME280;16487;53.094;8.800;2023-10-09T06:05:36;100324.00;;;13.72;100.00
29549;BME280;16487;53.094;8.800;2023-10-09T06:08:04;100335.03;;;13.75;100.00
29549;BME280;16487;53.094;8.800;2023-10-09T06:10:32;100312.31;;;13.73;100.00
29549;BME280;16487;53.094;8.800;2023-10-09T06:12:59;100306.84;;;13.79;100.00
29549;BME280;16487;53.094;8.800;2023-10-09T06:15:27;100304.78;;;13.89;100.00
29549;BME280;16487;53.094;8.800;2023-10-09T06:17:55;100274.84;;;13.95;100.00
29549;BME280;16487;53.094;8.800;2023-10-09T06:20:23;100248.97;;;14.00;100.00
29549;BME280;16487;53.094;8.800;2023-10-09T06:22:50;100236.88;;;13.94;100.00
29549;BME280;16487;53.094;8.800;2023-10-09T06:25:17;100218.81;;;13.95;100.00
29549;BME280;16487;53.094;8.800;2023-10-09T06:27:44;100225.13;;;14.04;100.00
29549;BME280;16487;53.094;8.800;2023-10-09T06:30:12;100233.53;;;14.04;100.00
29549;BME280;16487;53.094;8.800;2023-10-09T06:32:39;100248.59;;;14.07;100.00
29549;BME280;16487;53.094;8.800;2023-10-09T06:35:08;100249.50;;;14.13;100.00
29549;BME280;16487;53.094;8.800;2023-10-09T06:37:35;100257.13;;;14.12;100.00
29549;BME280;16487;53.094;8.800;2023-10-09T06:40:03;100267.75;;;14.08;100.00
29549;BME280;16487;53.094;8.800;2023-10-09T06:42:30;100273.66;;;14.10;100.00
29549;BME280;16487;53.094;8.800;2023-10-09T06:44:59;100272.38;;;14.11;100.00
29549;BME280;16487;53.094;8.800;2023-10-09T06:47:26;100261.25;;;14.26;100.00
29549;BME280;16487;53.094;8.800;2023-10-09T06:49:54;100247.75;;;14.15;100.00
29549;BME280;16487;53.094;8.800;2023-10-09T06:52:22;100264.06;;;14.26;100.00
29549;BME280;16487;53.094;8.800;2023-10-09T06:54:49;100277.88;;;14.29;100.00
29549;BME280;16487;53.094;8.800;2023-10-09T06:57:17;100278.97;;;14.32;100.00
29549;BME280;16487;53.094;8.800;2023-10-09T06:59:45;100293.44;;;14.30;100.00
29549;BME280;16487;53.094;8.800;2023-10-09T07:02:12;100299.94;;;14.36;100.00
29549;BME280;16487;53.094;8.800;2023-10-09T07:04:39;100308.88;;;14.64;100.00
29549;BME280;16487;53.094;8.800;2023-10-09T07:07:06;100259.75;;;14.83;100.00
29549;BME280;16487;53.094;8.800;2023-10-09T07:09:35;100182.72;;;14.84;100.00
29549;BME280;16487;53.094;8.800;2023-10-09T07:12:02;100120.75;;;14.82;100.00
29549;BME280;16487;53.094;8.800;2023-10-09T07:14:30;100129.63;;;14.80;100.00
29549;BME280;16487;53.094;8.800;2023-10-09T07:16:59;100135.00;;;14.64;100.00
29549;BME280;16487;53.094;8.800;2023-10-09T07:19:28;100155.69;;;14.66;100.00
29549;BME280;16487;53.094;8.800;2023-10-09T07:21:58;100151.72;;;14.58;100.00
29549;BME280;16487;53.094;8.800;2023-10-09T07:24:25;100202.88;;;14.68;100.00
29549;BME280;16487;53.094;8.800;2023-10-09T07:26:54;100219.59;;;14.77;100.00
29549;BME280;16487;53.094;8.800;2023-10-09T07:29:21;100228.00;;;14.77;100.00
29549;BME280;16487;53.094;8.800;2023-10-09T07:31:49;100217.97;;;14.85;100.00
29549;BME280;16487;53.094;8.800;2023-10-09T07:34:18;100205.06;;;14.93;100.00
29549;BME280;16487;53.094;8.800;2023-10-09T07:36:46;100180.81;;;14.90;100.00
29549;BME280;16487;53.094;8.800;2023-10-09T07:39:13;100178.38;;;14.98;100.00
29549;BME280;16487;53.094;8.800;2023-10-09T07:41:41;100167.06;;;15.27;100.00
29549;BME280;16487;53.094;8.800;2023-10-09T07:44:10;100139.69;;;15.22;100.00
29549;BME280;16487;53.094;8.800;2023-10-09T07:46:37;100104.81;;;15.28;100.00
29549;BME280;16487;53.094;8.800;2023-10-09T07:49:05;100082.56;;;15.25;100.00
29549;BME280;16487;53.094;8.800;2023-10-09T07:51:32;100064.78;;;15.33;100.00
29549;BME280;16487;53.094;8.800;2023-10-09T07:53:59;100057.69;;;15.38;100.00
29549;BME280;16487;53.094;8.800;2023-10-09T07:56:27;100053.50;;;15.28;100.00
29549;BME280;16487;53.094;8.800;2023-10-09T07:58:54;100049.91;;;15.27;100.00
29549;BME280;16487;53.094;8.800;2023-10-09T08:01:22;100043.59;;;15.32;100.00
29549;BME280;16487;53.094;8.800;2023-10-09T08:03:50;100046.13;;;15.30;100.00
29549;BME280;16487;53.094;8.800;2023-10-09T08:06:17;100054.84;;;15.32;100.00
29549;BME280;16487;53.094;8.800;2023-10-09T08:08:44;100056.09;;;15.31;100.00
29549;BME280;16487;53.094;8.800;2023-10-09T08:11:11;100048.22;;;15.35;100.00
29549;BME280;16487;53.094;8.800;2023-10-09T08:13:39;100047.41;;;15.49;100.00
29549;BME280;16487;53.094;8.800;2023-10-09T08:16:06;100047.19;;;15.53;100.00
29549;BME280;16487;53.094;8.800;2023-10-09T08:18:35;100045.13;;;15.53;100.00
29549;BME280;16487;53.094;8.800;2023-10-09T08:21:02;100046.69;;;15.54;100.00
29549;BME280;16487;53.094;8.800;2023-10-09T08:23:29;100051.38;;;15.63;100.00
29549;BME280;16487;53.094;8.800;2023-10-09T08:26:00;100041.88;;;15.60;100.00
29549;BME280;16487;53.094;8.800;2023-10-09T08:28:27;100043.97;;;15.65;100.00
29549;BME280;16487;53.094;8.800;2023-10-09T08:30:54;100039.34;;;15.62;100.00
29549;BME280;16487;53.094;8.800;2023-10-09T08:33:21;100038.88;;;15.64;100.00
29549;BME280;16487;53.094;8.800;2023-10-09T08:35:54;100039.66;;;15.64;100.00
29549;BME280;16487;53.094;8.800;2023-10-09T08:38:21;100035.41;;;15.74;100.00
29549;BME280;16487;53.094;8.800;2023-10-09T08:40:49;100036.19;;;15.75;100.00
29549;BME280;16487;53.094;8.800;2023-10-09T08:43:18;100037.19;;;15.72;100.00
29549;BME280;16487;53.094;8.800;2023-10-09T08:45:47;100030.22;;;15.67;100.00
29549;BME280;16487;53.094;8.800;2023-10-09T08:48:14;100049.72;;;15.76;100.00
29549;BME280;16487;53.094;8.800;2023-10-09T08:50:42;100059.97;;;15.79;100.00
29549;BME280;16487;53.094;8.800;2023-10-09T08:53:11;100059.44;;;15.75;100.00
29549;BME280;16487;53.094;8.800;2023-10-09T08:55:39;100068.63;;;15.76;100.00
29549;BME280;16487;53.094;8.800;2023-10-09T08:58:07;100073.00;;;15.77;100.00
29549;BME280;16487;53.094;8.800;2023-10-09T09:00:35;100075.84;;;15.82;100.00
29549;BME280;16487;53.094;8.800;2023-10-09T09:03:02;100086.09;;;15.85;100.00
29549;BME280;16487;53.094;8.800;2023-10-09T09:05:29;100085.94;;;15.94;100.00
29549;BME280;16487;53.094;8.800;2023-10-09T09:07:57;100086.19;;;15.96;100.00
29549;BME280;16487;53.094;8.800;2023-10-09T09:10:28;100085.75;;;16.03;100.00
29549;BME280;16487;53.094;8.800;2023-10-09T09:12:56;100087.88;;;16.09;100.00
29549;BME280;16487;53.094;8.800;2023-10-09T09:15:23;100076.34;;;16.07;100.00
29549;BME280;16487;53.094;8.800;2023-10-09T09:17:50;100069.44;;;16.08;100.00
29549;BME280;16487;53.094;8.800;2023-10-09T09:20:22;100060.28;;;16.13;100.00
29549;BME280;16487;53.094;8.800;2023-10-09T09:22:53;100066.47;;;16.17;100.00
29549;BME280;16487;53.094;8.800;2023-10-09T09:25:21;100065.69;;;16.16;100.00
29549;BME280;16487;53.094;8.800;2023-10-09T09:27:49;100061.13;;;16.19;100.00
29549;BME280;16487;53.094;8.800;2023-10-09T09:30:23;100054.78;;;16.24;100.00
29549;BME280;16487;53.094;8.800;2023-10-09T09:32:52;100047.06;;;16.19;100.00
29549;BME280;16487;53.094;8.800;2023-10-09T09:35:19;100056.06;;;16.28;100.00
29549;BME280;16487;53.094;8.800;2023-10-09T09:37:52;100056.56;;;16.27;100.00
29549;BME280;16487;53.094;8.800;2023-10-09T09:40:20;100063.03;;;16.33;100.00
29549;BME280;16487;53.094;8.800;2023-10-09T09:42:48;100054.81;;;16.29;100.00
29549;BME280;16487;53.094;8.800;2023-10-09T09:45:16;100054.03;;;16.29;100.00
29549;BME280;16487;53.094;8.800;2023-10-09T09:47:44;100057.94;;;16.37;100.00
29549;BME280;16487;53.094;8.800;2023-10-09T09:50:11;100067.38;;;16.34;100.00
29549;BME280;16487;53.094;8.800;2023-10-09T09:52:39;100062.81;;;16.36;100.00
29549;BME280;16487;53.094;8.800;2023-10-09T09:55:08;100069.19;;;16.37;100.00
29549;BME280;16487;53.094;8.800;2023-10-09T09:57:36;100075.81;;;16.34;100.00
29549;BME280;16487;53.094;8.800;2023-10-09T10:00:06;100080.44;;;16.37;100.00
29549;BME280;16487;53.094;8.800;2023-10-09T10:02:38;100074.28;;;16.33;100.00
29549;BME280;16487;53.094;8.800;2023-10-09T10:05:09;100084.25;;;16.34;100.00
29549;BME280;16487;53.094;8.800;2023-10-09T10:07:36;100096.06;;;16.38;100.00
29549;BME280;16487;53.094;8.800;2023-10-09T10:10:35;100108.88;;;16.44;100.00
29549;BME280;16487;53.094;8.800;2023-10-09T10:13:02;100099.16;;;16.45;100.00
29549;BME280;16487;53.094;8.800;2023-10-09T10:15:59;100107.47;;;16.54;100.00
29549;BME280;16487;53.094;8.800;2023-10-09T10:18:30;100115.16;;;16.59;100.00
29549;BME280;16487;53.094;8.800;2023-10-09T10:21:11;100101.28;;;16.50;100.00
29549;BME280;16487;53.094;8.800;2023-10-09T10:23:38;100114.13;;;16.57;100.00
29549;BME280;16487;53.094;8.800;2023-10-09T10:26:21;100114.13;;;16.57;100.00
29549;BME280;16487;53.094;8.800;2023-10-09T10:29:19;100114.13;;;16.57;100.00
29549;BME280;16487;53.094;8.800;2023-10-09T10:31:56;100112.63;;;16.61;100.00
29549;BME280;16487;53.094;8.800;2023-10-09T10:34:24;100130.28;;;16.62;100.00
29549;BME280;16487;53.094;8.800;2023-10-09T10:36:52;100128.72;;;16.61;100.00
29549;BME280;16487;53.094;8.800;2023-10-09T10:39:19;100136.44;;;16.66;100.00
29549;BME280;16487;53.094;8.800;2023-10-09T10:41:52;100144.34;;;16.62;100.00
29549;BME280;16487;53.094;8.800;2023-10-09T10:44:27;100155.16;;;16.69;100.00
29549;BME280;16487;53.094;8.800;2023-10-09T10:46:59;100152.47;;;16.85;100.00
29549;BME280;16487;53.094;8.800;2023-10-09T10:49:27;100145.81;;;16.88;100.00
29549;BME280;16487;53.094;8.800;2023-10-09T10:51:55;99990.66;;;16.70;100.00
29549;BME280;16487;53.094;8.800;2023-10-09T10:54:23;100026.50;;;16.75;100.00
29549;BME280;16487;53.094;8.800;2023-10-09T10:56:51;100069.19;;;16.68;100.00
29549;BME280;16487;53.094;8.800;2023-10-09T10:59:19;100108.34;;;16.71;100.00
29549;BME280;16487;53.094;8.800;2023-10-09T11:01:46;100134.72;;;16.74;100.00
29549;BME280;16487;53.094;8.800;2023-10-09T11:04:15;100163.41;;;16.78;100.00
29549;BME280;16487;53.094;8.800;2023-10-09T11:06:43;100186.28;;;16.91;100.00
29549;BME280;16487;53.094;8.800;2023-10-09T11:09:17;100198.22;;;16.80;100.00
29549;BME280;16487;53.094;8.800;2023-10-09T11:11:45;100223.88;;;16.88;100.00
29549;BME280;16487;53.094;8.800;2023-10-09T11:14:12;100245.13;;;16.89;100.00
29549;BME280;16487;53.094;8.800;2023-10-09T11:16:40;100270.75;;;16.91;100.00
29549;BME280;16487;53.094;8.800;2023-10-09T11:19:09;100291.94;;;16.86;100.00
29549;BME280;16487;53.094;8.800;2023-10-09T11:21:38;100311.44;;;16.90;100.00
29549;BME280;16487;53.094;8.800;2023-10-09T11:24:07;100323.22;;;16.94;100.00
29549;BME280;16487;53.094;8.800;2023-10-09T11:26:35;100344.94;;;16.88;100.00
29549;BME280;16487;53.094;8.800;2023-10-09T11:29:26;100367.47;;;16.93;100.00
29549;BME280;16487;53.094;8.800;2023-10-09T11:32:00;100389.34;;;17.04;100.00
29549;BME280;16487;53.094;8.800;2023-10-09T11:34:28;100395.75;;;17.30;100.00
29549;BME280;16487;53.094;8.800;2023-10-09T11:36:58;100379.22;;;17.12;100.00
29549;BME280;16487;53.094;8.800;2023-10-09T11:39:27;100379.59;;;17.25;100.00
29549;BME280;16487;53.094;8.800;2023-10-09T11:42:00;100348.97;;;17.38;100.00
29549;BME280;16487;53.094;8.800;2023-10-09T11:44:35;100306.53;;;17.47;100.00
29549;BME280;16487;53.094;8.800;2023-10-09T11:47:02;100265.44;;;17.35;100.00
29549;BME280;16487;53.094;8.800;2023-10-09T11:49:30;100279.53;;;17.30;100.00
29549;BME280;16487;53.094;8.800;2023-10-09T11:52:06;100279.41;;;17.18;100.00
29549;BME280;16487;53.094;8.800;2023-10-09T11:54:34;100287.91;;;17.24;100.00
29549;BME280;16487;53.094;8.800;2023-10-09T11:57:02;100292.00;;;17.23;100.00
29549;BME280;16487;53.094;8.800;2023-10-09T11:59:30;100287.97;;;17.35;100.00
29549;BME280;16487;53.094;8.800;2023-10-09T12:01:57;100273.66;;;17.33;100.00
29549;BME280;16487;53.094;8.800;2023-10-09T12:04:24;100256.53;;;17.37;100.00
29549;BME280;16487;53.094;8.800;2023-10-09T12:06:51;100235.28;;;17.41;100.00
29549;BME280;16487;53.094;8.800;2023-10-09T12:09:20;100221.16;;;17.36;100.00
29549;BME280;16487;53.094;8.800;2023-10-09T12:11:47;100221.28;;;17.47;100.00
29549;BME280;16487;53.094;8.800;2023-10-09T12:14:29;100204.34;;;17.47;100.00
29549;BME280;16487;53.094;8.800;2023-10-09T12:16:56;100196.25;;;17.65;100.00
29549;BME280;16487;53.094;8.800;2023-10-09T12:19:24;100186.00;;;17.62;100.00
29549;BME280;16487;53.094;8.800;2023-10-09T12:21:52;100176.47;;;17.54;100.00
29549;BME280;16487;53.094;8.800;2023-10-09T12:24:20;100165.72;;;17.58;100.00
29549;BME280;16487;53.094;8.800;2023-10-09T12:26:47;100175.97;;;17.56;100.00
29549;BME280;16487;53.094;8.800;2023-10-09T12:29:15;100175.50;;;17.68;100.00
29549;BME280;16487;53.094;8.800;2023-10-09T12:31:42;100161.94;;;17.67;100.00
29549;BME280;16487;53.094;8.800;2023-10-09T12:34:09;100159.69;;;17.87;100.00
29549;BME280;16487;53.094;8.800;2023-10-09T12:36:36;100170.03;;;18.12;100.00
29549;BME280;16487;53.094;8.800;2023-10-09T12:39:03;100172.34;;;18.14;100.00
29549;BME280;16487;53.094;8.800;2023-10-09T12:41:31;100168.75;;;18.13;100.00
29549;BME280;16487;53.094;8.800;2023-10-09T12:43:58;100159.31;;;18.39;100.00
29549;BME280;16487;53.094;8.800;2023-10-09T12:46:29;100158.06;;;18.45;100.00